Los Molinos, California
Current Conditions -  °F | °C
As of 6:54 PM on Saturday 25 Oct 2014 (Local Time) from KRBL Reporting Station
Overcast Overcast  
Wind Chill: 17°   Ceiling: 8000
Heat Index: 17°   Visibility: 10mi
Dew Point: 12°   Wind: 0mph
Humidity: 75%   Direction: NA
Pressure: 29.97"   Gusts: NA
Location:  40.02°N, 122.1°W
Report Text: KRBL 260154Z AUTO 00000KT 10SM SCT065 BKN080 OVC090 17/12 A2997 RMK AO2 LTG DSNT NE SLP147 T01670122
Loading
Personal Weather Stations






























Interactive Weather Map
Tropical Storm Tracking
New forecast layout! Learn more

10-Day Weather Forecast

Advertisements
Track Severe Weather on mobile